Time;durP1;ratioP1;P1;durP2;ratioP2;P2;SDS_P1;SDS_P2;PMS_P1;PMS_P2;Temp;Humidity;BMP_temperature;BMP_pressure;BME280_temperature;BME280_humidity;BME280_pressure;Samples;Min_cycle;Max_cycle;Signal;HPM_P1;HPM_P2
2021/11/14 00:01:35;;;;;;;13.82;8.57;;;13.10;84.90;;;;;;5076065;28;20429;-82
2021/11/14 00:04:01;;;;;;;15.60;9.00;;;13.00;84.90;;;;;;5075317;28;20249;-83
2021/11/14 00:06:28;;;;;;;12.40;7.83;;;13.00;85.10;;;;;;5079943;28;20565;-83
2021/11/14 00:08:54;;;;;;;17.23;8.77;;;13.00;85.00;;;;;;5081571;28;20778;-83
2021/11/14 00:11:20;;;;;;;13.20;9.00;;;13.00;85.00;;;;;;5075936;28;20252;-83
2021/11/14 00:13:48;;;;;;;23.48;9.35;;;12.80;85.30;;;;;;5075947;28;20458;-83
2021/11/14 00:16:19;;;;;;;16.50;9.23;;;12.70;85.80;;;;;;5075508;28;20200;-82
2021/11/14 00:18:46;;;;;;;16.05;10.07;;;12.60;86.30;;;;;;5076224;28;20173;-82
2021/11/14 00:21:15;;;;;;;17.98;10.75;;;12.40;87.00;;;;;;5095932;28;20180;-82
2021/11/14 00:23:41;;;;;;;15.88;10.35;;;12.20;87.70;;;;;;5085475;28;20213;-83
2021/11/14 00:26:07;;;;;;;15.45;11.23;;;12.30;88.20;;;;;;5061186;28;20208;-82
2021/11/14 00:28:33;;;;;;;16.88;10.27;;;12.20;88.50;;;;;;5079218;28;20290;-82
2021/11/14 00:30:59;;;;;;;17.20;10.33;;;12.10;88.90;;;;;;5094052;28;20223;-81
2021/11/14 00:33:25;;;;;;;15.40;10.17;;;12.10;89.10;;;;;;5098209;28;20255;-82
2021/11/14 00:35:52;;;;;;;20.03;11.50;;;12.10;89.40;;;;;;5099257;28;20555;-82
2021/11/14 00:38:19;;;;;;;20.92;12.73;;;12.10;89.50;;;;;;5098530;28;20228;-82
2021/11/14 00:40:45;;;;;;;13.45;11.05;;;12.20;89.20;;;;;;5100326;28;20180;-82
2021/11/14 00:43:11;;;;;;;21.97;10.80;;;12.20;89.40;;;;;;5098468;28;20187;-81
2021/11/14 00:45:40;;;;;;;24.87;12.70;;;12.40;89.10;;;;;;5099110;28;20925;-82
2021/11/14 00:48:07;;;;;;;17.63;11.98;;;12.40;89.00;;;;;;5100454;28;20406;-82
2021/11/14 00:50:34;;;;;;;20.25;13.30;;;12.30;88.80;;;;;;5098655;28;20186;-81
2021/11/14 00:53:01;;;;;;;19.38;13.27;;;12.30;89.10;;;;;;5098554;28;20172;-82
2021/11/14 00:55:31;;;;;;;25.08;13.48;;;12.30;88.90;;;;;;5100092;28;20667;-81
2021/11/14 00:57:58;;;;;;;21.35;13.75;;;12.30;89.20;;;;;;5099128;28;20176;-81
2021/11/14 01:00:26;;;;;;;17.90;13.43;;;12.30;89.20;;;;;;5099639;28;20176;-81
2021/11/14 01:02:52;;;;;;;19.05;15.25;;;12.50;89.20;;;;;;5099585;28;20175;-81
2021/11/14 01:05:20;;;;;;;18.65;14.05;;;12.50;88.90;;;;;;5096572;28;20666;-81
2021/11/14 01:07:47;;;;;;;23.65;15.30;;;12.40;88.70;;;;;;5094715;28;20196;-80
2021/11/14 01:10:17;;;;;;;22.85;15.30;;;12.40;88.80;;;;;;5080002;28;20204;-81
2021/11/14 01:12:43;;;;;;;25.48;16.50;;;12.30;88.80;;;;;;5083935;28;20176;-80
2021/11/14 01:15:10;;;;;;;24.42;16.70;;;12.40;89.00;;;;;;5081459;28;20204;-80
2021/11/14 01:17:39;;;;;;;24.08;16.95;;;12.60;89.60;;;;;;5078857;28;20231;-79
2021/11/14 01:20:15;;;;;;;24.77;15.27;;;12.70;88.70;;;;;;5078629;28;20176;-79
2021/11/14 01:22:42;;;;;;;24.77;15.30;;;12.70;88.40;;;;;;5105715;28;20201;-81
2021/11/14 01:25:11;;;;;;;24.85;16.88;;;12.70;88.30;;;;;;5118396;28;20207;-81
2021/11/14 01:27:37;;;;;;;24.13;15.23;;;12.60;88.20;;;;;;5120377;28;20609;-81
2021/11/14 01:30:15;;;;;;;26.33;16.00;;;12.50;88.20;;;;;;5118945;28;20179;-81
2021/11/14 01:32:41;;;;;;;30.77;16.35;;;12.30;88.50;;;;;;5118232;28;20186;-81
2021/11/14 01:35:08;;;;;;;21.98;14.18;;;12.10;88.70;;;;;;5118298;28;20195;-81
2021/11/14 01:37:35;;;;;;;23.08;15.50;;;12.20;89.10;;;;;;5095651;28;20172;-81
2021/11/14 01:40:01;;;;;;;24.92;14.60;;;12.00;89.30;;;;;;5077706;28;20169;-81
2021/11/14 01:42:26;;;;;;;27.13;16.45;;;11.90;89.70;;;;;;5077858;28;20183;-81
2021/11/14 01:44:52;;;;;;;23.30;16.50;;;11.90;90.00;;;;;;5075931;28;20200;-81
2021/11/14 01:47:18;;;;;;;34.53;17.13;;;12.20;89.90;;;;;;5075897;28;20204;-81
2021/11/14 01:49:44;;;;;;;34.23;15.80;;;12.10;89.60;;;;;;5075047;28;20208;-81
2021/11/14 01:52:22;;;;;;;23.77;15.68;;;12.10;89.70;;;;;;5090473;28;20172;-81
2021/11/14 01:54:48;;;;;;;26.80;18.33;;;12.10;89.60;;;;;;5101896;28;20192;-82
2021/11/14 01:57:14;;;;;;;32.67;17.48;;;12.10;89.60;;;;;;5092445;28;20260;-81
2021/11/14 01:59:40;;;;;;;31.58;18.40;;;12.20;89.50;;;;;;5081315;28;20216;-81
2021/11/14 02:02:06;;;;;;;27.30;16.50;;;12.20;89.50;;;;;;5080954;28;20240;-82
2021/11/14 02:04:32;;;;;;;23.90;15.30;;;12.30;89.60;;;;;;5079427;28;20196;-82
2021/11/14 02:06:58;;;;;;;25.77;16.63;;;12.30;89.40;;;;;;5079039;28;20311;-81
2021/11/14 02:09:24;;;;;;;34.30;18.13;;;12.40;89.20;;;;;;5076782;28;20187;-81
2021/11/14 02:11:50;;;;;;;26.40;17.13;;;12.50;89.20;;;;;;5075619;28;20407;-81
2021/11/14 02:14:15;;;;;;;27.73;19.20;;;12.40;89.00;;;;;;5080960;28;20211;-81
2021/11/14 02:16:41;;;;;;;33.10;20.40;;;12.30;89.20;;;;;;5097384;28;20913;-82
2021/11/14 02:19:09;;;;;;;30.90;19.67;;;12.20;89.50;;;;;;5080267;28;20267;-81
2021/11/14 02:21:36;;;;;;;38.00;22.10;;;12.50;89.40;;;;;;5087242;28;20248;-81
2021/11/14 02:24:03;;;;;;;44.47;22.52;;;12.30;89.10;;;;;;5118885;28;20202;-82
2021/11/14 02:26:29;;;;;;;40.05;22.98;;;12.30;89.10;;;;;;5119727;28;20737;-82
2021/11/14 02:28:56;;;;;;;52.47;25.60;;;12.00;89.60;;;;;;5118545;28;20183;-80
2021/11/14 02:31:25;;;;;;;43.08;24.67;;;12.10;90.20;;;;;;5102126;28;20242;-80
2021/11/14 02:33:51;;;;;;;45.80;24.25;;;12.10;90.40;;;;;;5098983;28;20202;-81
2021/11/14 02:36:18;;;;;;;48.90;24.42;;;12.30;90.40;;;;;;5098106;28;20279;-81
2021/11/14 02:38:44;;;;;;;46.00;27.23;;;12.20;90.30;;;;;;5081440;28;20188;-81
2021/11/14 02:41:11;;;;;;;48.85;25.85;;;12.20;90.40;;;;;;5078379;28;20180;-81
2021/11/14 02:43:41;;;;;;;51.75;27.50;;;12.20;90.50;;;;;;5059569;28;20201;-81
2021/11/14 02:46:07;;;;;;;60.03;27.95;;;12.20;90.50;;;;;;5078373;28;20599;-80
2021/11/14 02:48:33;;;;;;;49.88;26.42;;;12.30;90.30;;;;;;5094370;28;20186;-81
2021/11/14 02:51:01;;;;;;;54.47;27.90;;;12.30;90.30;;;;;;5099380;28;20405;-81
2021/11/14 02:53:27;;;;;;;62.20;28.83;;;12.40;90.30;;;;;;5090912;28;20282;-82
2021/11/14 02:55:54;;;;;;;61.22;29.88;;;12.50;90.00;;;;;;5095560;28;20590;-81
2021/11/14 02:58:21;;;;;;;64.15;29.10;;;12.30;90.10;;;;;;5095233;28;20180;-82
2021/11/14 03:01:05;;;;;;;54.60;28.85;;;12.40;89.90;;;;;;5095621;28;20194;-82
2021/11/14 03:03:31;;;;;;;49.28;26.95;;;12.40;89.80;;;;;;5095356;28;20215;-81
2021/11/14 03:05:57;;;;;;;58.97;31.42;;;12.40;90.10;;;;;;5095056;28;20204;-81
2021/11/14 03:08:23;;;;;;;55.80;28.88;;;12.40;90.00;;;;;;5097122;28;20287;-81
2021/11/14 03:10:49;;;;;;;66.97;31.00;;;12.50;90.10;;;;;;5095171;28;20198;-81
2021/11/14 03:13:19;;;;;;;54.35;30.55;;;12.40;89.80;;;;;;5094053;28;20219;-81
2021/11/14 03:15:48;;;;;;;64.78;32.08;;;12.30;90.10;;;;;;5093341;28;20184;-82
2021/11/14 03:18:15;;;;;;;59.80;29.60;;;12.30;90.30;;;;;;5093218;28;20241;-81
2021/11/14 03:20:43;;;;;;;62.65;30.52;;;12.40;90.40;;;;;;5086317;28;20187;-81
2021/11/14 03:23:10;;;;;;;74.03;31.65;;;12.30;90.40;;;;;;5102330;28;20220;-82
2021/11/14 03:25:36;;;;;;;64.28;29.90;;;12.40;90.40;;;;;;5099960;28;20205;-81
2021/11/14 03:28:03;;;;;;;66.78;32.88;;;12.40;90.20;;;;;;5101432;28;20253;-81
2021/11/14 03:30:33;;;;;;;66.50;31.92;;;12.40;90.30;;;;;;5100020;28;20179;-81
2021/11/14 03:33:02;;;;;;;64.45;30.60;;;12.40;90.30;;;;;;5088599;28;20192;-82
2021/11/14 03:35:42;;;;;;;66.18;32.50;;;12.50;90.30;;;;;;5084092;28;20192;-81
2021/11/14 03:38:09;;;;;;;60.20;29.95;;;12.60;90.00;;;;;;5078642;28;20169;-82
2021/11/14 03:40:36;;;;;;;58.05;31.10;;;12.60;89.60;;;;;;5076390;28;20180;-81
2021/11/14 03:43:02;;;;;;;63.00;32.25;;;12.40;89.50;;;;;;5078782;28;20206;-82
2021/11/14 03:45:27;;;;;;;66.00;33.37;;;12.30;89.70;;;;;;5078826;28;20204;-81
2021/11/14 03:47:53;;;;;;;69.40;32.10;;;12.40;89.70;;;;;;5078510;28;20204;-81
2021/11/14 03:50:19;;;;;;;83.40;35.37;;;12.60;89.60;;;;;;5078495;28;20177;-81
2021/11/14 03:52:45;;;;;;;70.70;31.83;;;12.70;89.20;;;;;;5085523;28;20207;-81
2021/11/14 03:55:13;;;;;;;68.72;32.75;;;12.70;88.70;;;;;;5088364;28;20433;-81
2021/11/14 03:57:44;;;;;;;65.43;31.13;;;12.70;88.70;;;;;;5104125;28;20186;-81
2021/11/14 04:00:20;;;;;;;63.78;31.25;;;12.70;88.50;;;;;;5108664;28;20164;-81
2021/11/14 04:02:48;;;;;;;66.15;30.55;;;12.70;88.40;;;;;;5111341;28;20180;-81
2021/11/14 04:05:14;;;;;;;56.10;29.95;;;12.60;88.10;;;;;;5110396;28;20199;-81
2021/11/14 04:07:40;;;;;;;61.60;29.15;;;12.40;88.30;;;;;;5107716;28;20206;-81
2021/11/14 04:10:07;;;;;;;56.63;29.85;;;12.40;88.70;;;;;;5106287;28;20172;-81
2021/11/14 04:12:33;;;;;;;59.50;30.65;;;12.40;88.60;;;;;;5086803;28;20271;-81
2021/11/14 04:14:59;;;;;;;63.73;30.20;;;12.40;88.80;;;;;;5103582;28;20227;-81
2021/11/14 04:17:24;;;;;;;53.93;30.10;;;12.40;88.90;;;;;;5084715;28;20177;-81
2021/11/14 04:19:50;;;;;;;65.73;30.20;;;12.40;88.70;;;;;;5085343;28;20418;-81
2021/11/14 04:22:16;;;;;;;62.10;29.20;;;12.50;88.50;;;;;;5098527;28;20183;-81
2021/11/14 04:24:42;;;;;;;61.83;29.43;;;12.40;88.50;;;;;;5101360;28;20204;-81
2021/11/14 04:27:08;;;;;;;66.80;29.75;;;12.30;88.60;;;;;;5091343;28;20465;-82
2021/11/14 04:29:33;;;;;;;60.17;29.40;;;12.30;88.90;;;;;;5094294;28;20543;-81
2021/11/14 04:31:59;;;;;;;58.90;27.80;;;12.00;89.00;;;;;;5111082;28;20489;-80
2021/11/14 04:34:25;;;;;;;58.78;29.23;;;12.10;89.30;;;;;;5106062;28;20271;-81
2021/11/14 04:36:51;;;;;;;59.87;28.93;;;12.20;89.20;;;;;;5101174;28;20256;-80
2021/11/14 04:39:17;;;;;;;63.33;29.87;;;12.30;89.00;;;;;;5105219;28;20391;-81
2021/11/14 04:41:43;;;;;;;59.95;31.35;;;12.40;88.70;;;;;;5110501;28;20429;-81
2021/11/14 04:44:08;;;;;;;51.93;26.50;;;12.30;88.40;;;;;;5108239;28;20204;-81
2021/11/14 04:46:34;;;;;;;60.20;28.63;;;12.40;88.20;;;;;;5105011;28;20203;-81
2021/11/14 04:49:00;;;;;;;59.57;29.70;;;12.40;88.70;;;;;;5096548;28;20707;-82
2021/11/14 04:51:26;;;;;;;58.27;27.60;;;12.30;88.00;;;;;;5111139;28;20426;-81
2021/11/14 04:53:52;;;;;;;52.00;25.40;;;12.20;88.20;;;;;;5104205;28;20208;-82
2021/11/14 04:56:18;;;;;;;56.10;27.50;;;12.20;89.00;;;;;;5090001;28;20189;-82
2021/11/14 04:58:44;;;;;;;54.90;28.03;;;12.10;88.40;;;;;;5098798;28;20218;-81
2021/11/14 05:01:10;;;;;;;45.38;24.33;;;11.90;88.40;;;;;;5101111;28;20176;-81
2021/11/14 05:03:36;;;;;;;48.13;24.80;;;11.90;88.80;;;;;;5098797;28;20232;-81
2021/11/14 05:06:02;;;;;;;54.03;27.67;;;12.20;88.90;;;;;;5092846;28;20455;-82
2021/11/14 05:08:28;;;;;;;55.20;27.92;;;12.20;88.70;;;;;;5103329;28;20204;-82
2021/11/14 05:10:54;;;;;;;53.93;27.17;;;12.30;88.40;;;;;;5110962;28;20229;-81
2021/11/14 05:13:20;;;;;;;59.33;26.43;;;12.50;88.20;;;;;;5094146;28;20193;-82
2021/11/14 05:15:47;;;;;;;55.00;26.70;;;12.50;87.70;;;;;;5106780;28;20173;-81
2021/11/14 05:18:12;;;;;;;53.05;26.40;;;12.40;87.20;;;;;;5091887;28;20254;-80
2021/11/14 05:20:38;;;;;;;54.23;24.80;;;12.40;87.20;;;;;;5082690;28;20210;-81
2021/11/14 05:23:05;;;;;;;53.30;25.37;;;12.30;86.90;;;;;;5098937;28;20415;-82
2021/11/14 05:25:32;;;;;;;49.03;23.58;;;12.30;86.90;;;;;;5090779;28;20437;-81
2021/11/14 05:27:57;;;;;;;48.55;24.38;;;12.50;86.80;;;;;;5067754;28;20291;-82
2021/11/14 05:30:23;;;;;;;48.60;23.40;;;12.40;86.50;;;;;;5098870;28;20728;-81
2021/11/14 05:32:49;;;;;;;41.60;23.50;;;12.40;86.10;;;;;;5088339;28;20175;-81
2021/11/14 05:35:15;;;;;;;49.30;25.13;;;12.40;86.20;;;;;;5080845;28;20196;-81
2021/11/14 05:37:41;;;;;;;46.65;23.20;;;12.40;86.10;;;;;;5086646;28;20180;-82
2021/11/14 05:40:08;;;;;;;41.50;22.08;;;12.40;86.30;;;;;;5079031;28;20275;-82
2021/11/14 05:42:35;;;;;;;45.17;20.42;;;12.20;86.00;;;;;;5087962;28;20191;-82
2021/11/14 05:45:01;;;;;;;48.22;23.52;;;12.10;86.30;;;;;;5084834;28;20257;-82
2021/11/14 05:47:27;;;;;;;52.73;22.20;;;12.20;86.50;;;;;;5088736;28;20242;-81
2021/11/14 05:49:53;;;;;;;44.72;22.00;;;12.10;86.50;;;;;;5091814;28;20413;-81
2021/11/14 05:52:19;;;;;;;43.77;20.93;;;12.00;86.60;;;;;;5081302;28;20173;-81
2021/11/14 05:54:44;;;;;;;44.17;23.23;;;12.10;86.70;;;;;;5084939;28;20574;-82
2021/11/14 05:57:11;;;;;;;43.13;23.07;;;12.00;86.60;;;;;;5079132;28;20219;-82
2021/11/14 05:59:51;;;;;;;47.60;22.73;;;12.00;86.50;;;;;;5094390;28;20231;-81
2021/11/14 06:02:43;;;;;;;36.53;21.90;;;12.00;86.50;;;;;;5079617;28;20172;-82
2021/11/14 06:07:34;;;;;;;43.67;21.38;;;12.10;86.40;;;;;;5096566;28;20223;-82
2021/11/14 06:10:01;;;;;;;44.45;22.38;;;12.10;86.00;;;;;;5091423;28;20669;-81
2021/11/14 06:12:32;;;;;;;48.35;24.30;;;12.10;85.80;;;;;;5091029;28;20169;-81
2021/11/14 06:14:58;;;;;;;41.08;21.23;;;12.20;85.40;;;;;;5088684;28;20195;-81
2021/11/14 06:17:24;;;;;;;40.97;21.80;;;12.10;85.30;;;;;;5089268;28;20550;-81
2021/11/14 06:19:51;;;;;;;40.95;22.30;;;12.20;85.10;;;;;;5090079;28;20266;-81
2021/11/14 06:22:17;;;;;;;41.95;22.92;;;12.10;84.90;;;;;;5101846;28;20190;-81
2021/11/14 06:24:44;;;;;;;44.83;22.58;;;12.00;85.00;;;;;;5102683;28;20192;-82
2021/11/14 06:27:10;;;;;;;42.85;20.80;;;12.00;85.30;;;;;;5092252;28;20239;-80
2021/11/14 06:29:35;;;;;;;37.70;20.23;;;11.80;85.70;;;;;;5077966;28;20180;-81
2021/11/14 06:32:01;;;;;;;41.53;20.90;;;11.80;85.90;;;;;;5077373;28;20423;-81
2021/11/14 06:34:27;;;;;;;42.50;23.65;;;11.90;86.10;;;;;;5094705;28;20195;-82
2021/11/14 06:36:53;;;;;;;38.23;20.60;;;11.90;86.00;;;;;;5080723;28;20263;-80
2021/11/14 06:39:19;;;;;;;47.57;22.80;;;11.90;86.00;;;;;;5099802;28;20156;-82
2021/11/14 06:41:45;;;;;;;44.63;21.45;;;11.80;85.90;;;;;;5091768;28;20180;-82
2021/11/14 06:44:11;;;;;;;41.20;21.90;;;11.90;85.90;;;;;;5079215;28;20211;-81
2021/11/14 06:46:37;;;;;;;44.93;19.77;;;12.00;85.80;;;;;;5087137;28;20200;-80
2021/11/14 06:49:03;;;;;;;41.50;22.73;;;11.80;85.80;;;;;;5089048;28;20709;-81
2021/11/14 06:51:29;;;;;;;41.83;22.35;;;11.90;86.20;;;;;;5084613;28;20177;-80
2021/11/14 06:53:55;;;;;;;40.65;22.15;;;11.90;86.10;;;;;;5083120;28;20290;-81
2021/11/14 06:56:21;;;;;;;51.30;23.63;;;11.90;86.20;;;;;;5083195;28;20265;-81
2021/11/14 06:58:48;;;;;;;44.00;23.48;;;11.90;86.20;;;;;;5079683;28;20168;-81
2021/11/14 07:01:14;;;;;;;45.67;22.63;;;11.90;86.00;;;;;;5092782;28;20230;-81
2021/11/14 07:03:39;;;;;;;51.40;23.17;;;11.90;85.90;;;;;;5092589;28;20204;-81
2021/11/14 07:06:06;;;;;;;47.72;22.20;;;11.90;85.70;;;;;;5086272;28;20462;-81
2021/11/14 07:08:32;;;;;;;46.67;24.67;;;12.00;85.60;;;;;;5083571;28;20176;-81
2021/11/14 07:10:57;;;;;;;43.87;20.70;;;11.90;85.30;;;;;;5096129;28;20191;-82
2021/11/14 07:13:23;;;;;;;49.10;24.10;;;11.90;85.50;;;;;;5080262;28;20790;-82
2021/11/14 07:15:49;;;;;;;53.03;26.40;;;11.90;85.60;;;;;;5093803;28;20172;-81
2021/11/14 07:18:15;;;;;;;59.60;24.30;;;11.80;85.60;;;;;;5091324;28;20169;-81
2021/11/14 07:20:40;;;;;;;50.50;24.13;;;11.90;85.90;;;;;;5082811;28;20662;-82
2021/11/14 07:23:06;;;;;;;54.70;25.10;;;11.90;86.00;;;;;;5075355;28;20869;-82
2021/11/14 07:25:32;;;;;;;53.43;26.53;;;11.90;85.90;;;;;;5081985;28;20197;-81
2021/11/14 07:27:59;;;;;;;51.35;26.20;;;11.90;85.30;;;;;;5089978;28;20458;-81
2021/11/14 07:30:25;;;;;;;59.28;26.67;;;12.00;85.20;;;;;;5090822;28;20213;-81
2021/11/14 07:32:52;;;;;;;60.38;27.27;;;12.00;85.30;;;;;;5079658;28;20187;-80
2021/11/14 07:35:20;;;;;;;56.13;27.27;;;11.90;85.30;;;;;;5099223;28;20227;-81
2021/11/14 07:37:47;;;;;;;56.53;28.02;;;12.00;86.00;;;;;;5092288;28;20191;-82
2021/11/14 07:40:15;;;;;;;60.22;26.83;;;11.90;85.20;;;;;;5102506;28;20247;-81
2021/11/14 07:42:44;;;;;;;57.17;27.67;;;11.90;85.20;;;;;;5093980;28;20183;-81
2021/11/14 07:45:12;;;;;;;60.85;29.05;;;11.90;85.30;;;;;;5082148;28;20225;-82
2021/11/14 07:47:40;;;;;;;54.33;27.73;;;11.80;85.50;;;;;;5097986;28;20360;-82
2021/11/14 07:50:08;;;;;;;58.47;29.25;;;12.00;85.40;;;;;;5092748;28;20172;-82
2021/11/14 07:52:33;;;;;;;52.22;24.52;;;12.10;85.10;;;;;;5090673;28;20173;-83
2021/11/14 07:54:59;;;;;;;52.83;27.40;;;11.90;85.00;;;;;;5089063;28;20210;-82
2021/11/14 07:57:26;;;;;;;68.00;29.83;;;12.00;85.20;;;;;;5093542;28;20186;-82
2021/11/14 07:59:52;;;;;;;59.97;28.60;;;12.10;85.40;;;;;;5100795;28;20849;-81
2021/11/14 08:02:18;;;;;;;56.72;25.58;;;11.90;85.20;;;;;;5091622;28;20202;-81
2021/11/14 08:04:44;;;;;;;62.73;27.73;;;12.00;85.30;;;;;;5099377;28;20202;-81
2021/11/14 08:07:10;;;;;;;61.67;27.73;;;12.00;85.00;;;;;;5086177;28;20453;-82
2021/11/14 08:09:37;;;;;;;57.27;27.23;;;12.00;85.00;;;;;;5089626;28;20521;-81
2021/11/14 08:12:03;;;;;;;61.20;26.88;;;12.00;85.00;;;;;;5089263;28;20426;-81
2021/11/14 08:14:29;;;;;;;64.13;28.05;;;12.00;85.10;;;;;;5096554;28;20352;-81
2021/11/14 08:16:55;;;;;;;58.23;28.67;;;12.00;85.10;;;;;;5089701;28;20222;-81
2021/11/14 08:19:21;;;;;;;58.45;26.85;;;11.90;85.50;;;;;;5094318;28;20429;-81
2021/11/14 08:21:47;;;;;;;52.20;25.40;;;11.80;85.10;;;;;;5084792;28;20191;-82
2021/11/14 08:24:12;;;;;;;62.80;26.03;;;11.80;85.40;;;;;;5084587;28;20704;-81
2021/11/14 08:26:38;;;;;;;55.40;26.10;;;11.80;85.40;;;;;;5093246;28;20304;-81
2021/11/14 08:29:05;;;;;;;63.28;28.52;;;11.80;85.30;;;;;;5084280;28;20196;-81
2021/11/14 08:31:31;;;;;;;52.80;26.77;;;11.80;85.30;;;;;;5086226;28;20199;-81
2021/11/14 08:33:56;;;;;;;56.60;27.87;;;11.90;85.40;;;;;;5092808;28;20219;-82
2021/11/14 08:36:23;;;;;;;56.67;27.23;;;12.00;85.30;;;;;;5092978;28;20173;-81
2021/11/14 08:38:49;;;;;;;53.63;25.95;;;11.90;85.10;;;;;;5092379;28;20427;-83
2021/11/14 08:41:15;;;;;;;54.50;27.00;;;12.10;85.00;;;;;;5095764;28;20294;-82
2021/11/14 08:43:42;;;;;;;56.53;30.00;;;12.10;84.80;;;;;;5104816;28;20452;-82
2021/11/14 08:46:09;;;;;;;50.90;27.10;;;12.20;84.70;;;;;;5096198;28;20764;-82
2021/11/14 08:48:35;;;;;;;60.00;26.45;;;12.00;84.50;;;;;;5079510;28;20180;-81
2021/11/14 08:51:01;;;;;;;58.90;25.63;;;12.00;84.50;;;;;;5082891;28;20202;-81
2021/11/14 08:53:27;;;;;;;53.77;25.37;;;12.10;84.30;;;;;;5096287;28;20186;-81
2021/11/14 08:55:54;;;;;;;54.35;27.27;;;12.10;84.20;;;;;;5079034;28;20426;-81
2021/11/14 08:58:20;;;;;;;53.67;26.05;;;12.10;84.10;;;;;;5084028;28;20176;-82
2021/11/14 09:00:46;;;;;;;61.38;26.40;;;12.10;84.20;;;;;;5077758;28;20207;-81
2021/11/14 09:03:11;;;;;;;57.83;26.90;;;12.20;84.20;;;;;;5082680;28;20184;-82
2021/11/14 09:05:37;;;;;;;63.33;27.73;;;12.10;84.00;;;;;;5089377;28;20698;-82
2021/11/14 09:08:05;;;;;;;52.50;27.00;;;12.10;83.80;;;;;;5078036;28;20204;-81
2021/11/14 09:10:32;;;;;;;56.30;28.90;;;12.10;84.30;;;;;;5078900;28;20183;-81
2021/11/14 09:12:58;;;;;;;67.35;28.65;;;12.20;84.20;;;;;;5085433;28;20192;-82
2021/11/14 09:15:26;;;;;;;63.28;29.00;;;12.20;83.80;;;;;;5086873;28;20686;-80
2021/11/14 09:17:53;;;;;;;56.53;29.73;;;12.10;83.70;;;;;;5091634;28;20541;-80
2021/11/14 09:20:21;;;;;;;71.35;31.50;;;12.10;83.90;;;;;;5082812;28;20188;-81
2021/11/14 09:22:47;;;;;;;56.10;28.77;;;12.20;83.70;;;;;;5088776;28;20204;-81
2021/11/14 09:25:14;;;;;;;72.53;30.42;;;12.10;83.60;;;;;;5089511;28;20244;-80
2021/11/14 09:27:40;;;;;;;64.85;30.52;;;12.00;83.80;;;;;;5082213;28;20200;-79
2021/11/14 09:30:07;;;;;;;66.77;31.17;;;12.00;84.00;;;;;;5086999;28;20599;-81
2021/11/14 09:32:34;;;;;;;69.75;29.23;;;12.00;84.10;;;;;;5076909;28;20172;-80
2021/11/14 09:35:00;;;;;;;67.10;27.35;;;12.10;84.30;;;;;;5087233;28;20208;-82
2021/11/14 09:37:26;;;;;;;63.80;28.85;;;12.20;84.00;;;;;;5088851;28;20187;-81
2021/11/14 09:39:52;;;;;;;66.43;32.33;;;12.10;83.10;;;;;;5088524;28;20181;-82
2021/11/14 09:42:19;;;;;;;64.17;25.57;;;12.10;83.10;;;;;;5091224;28;20433;-81
2021/11/14 09:44:45;;;;;;;52.13;25.83;;;12.10;82.90;;;;;;5100492;28;20462;-82
2021/11/14 09:47:13;;;;;;;71.90;29.80;;;12.00;82.40;;;;;;5099586;28;20211;-81
2021/11/14 09:49:39;;;;;;;58.22;28.33;;;12.00;82.80;;;;;;5095955;28;20176;-82
2021/11/14 09:52:05;;;;;;;58.75;26.65;;;12.20;82.60;;;;;;5093470;28;20588;-82
2021/11/14 09:54:33;;;;;;;60.33;28.90;;;12.20;82.20;;;;;;5093441;28;20204;-81
2021/11/14 09:57:00;;;;;;;59.72;26.48;;;12.20;81.80;;;;;;5090777;28;20195;-81
2021/11/14 09:59:27;;;;;;;58.03;28.35;;;12.20;81.80;;;;;;5095128;28;20184;-81
2021/11/14 10:01:56;;;;;;;51.88;25.33;;;12.10;81.50;;;;;;5092051;28;20286;-82
2021/11/14 10:04:22;;;;;;;52.25;25.17;;;12.10;81.30;;;;;;5099350;28;20286;-81
2021/11/14 10:07:00;;;;;;;61.17;26.17;;;12.30;81.40;;;;;;5105063;28;20192;-80
2021/11/14 10:09:38;;;;;;;57.13;26.08;;;12.40;81.00;;;;;;5103650;28;20172;-81
2021/11/14 10:12:24;;;;;;;52.22;23.90;;;12.40;80.80;;;;;;5092805;28;20524;-82
2021/11/14 10:15:07;;;;;;;43.65;23.85;;;12.40;80.80;;;;;;5084676;28;20434;-80
2021/11/14 10:17:33;;;;;;;47.17;22.55;;;12.10;80.10;;;;;;5089374;28;20178;-80
2021/11/14 10:20:13;;;;;;;43.05;21.20;;;12.10;80.00;;;;;;5092653;28;20572;-79
2021/11/14 10:22:42;;;;;;;49.42;23.33;;;12.30;80.10;;;;;;5109722;28;20187;-79
2021/11/14 10:25:09;;;;;;;46.78;23.30;;;12.10;80.00;;;;;;5096107;28;20256;-82
2021/11/14 10:27:35;;;;;;;47.53;22.98;;;12.00;80.00;;;;;;5097368;28;20737;-79
2021/11/14 10:30:05;;;;;;;49.85;21.95;;;12.00;80.30;;;;;;5099269;28;20247;-81
2021/11/14 10:32:31;;;;;;;45.55;21.95;;;12.00;80.10;;;;;;5095729;28;20602;-81
2021/11/14 10:35:04;;;;;;;43.80;21.80;;;11.90;80.00;;;;;;5098718;28;20223;-81
2021/11/14 10:37:33;;;;;;;35.95;18.42;;;11.90;79.80;;;;;;5090881;28;20697;-81
2021/11/14 10:40:03;;;;;;;44.53;20.08;;;11.90;79.50;;;;;;5101479;28;20192;-80
2021/11/14 10:42:32;;;;;;;45.47;21.75;;;11.80;79.80;;;;;;5098117;28;20188;-81
2021/11/14 10:45:00;;;;;;;41.47;21.00;;;11.90;80.00;;;;;;5099921;28;20216;-81
2021/11/14 10:47:28;;;;;;;41.88;19.20;;;11.90;80.00;;;;;;5087671;28;20196;-81
2021/11/14 10:50:00;;;;;;;43.60;21.60;;;11.90;80.10;;;;;;5088276;28;20655;-83
2021/11/14 10:52:28;;;;;;;37.45;19.45;;;11.80;79.60;;;;;;5084927;28;20160;-84
2021/11/14 10:55:04;;;;;;;40.20;18.67;;;11.90;79.70;;;;;;5086536;28;20200;-81
2021/11/14 10:57:31;;;;;;;32.88;19.00;;;11.80;79.70;;;;;;5091341;28;20233;-82
2021/11/14 10:59:58;;;;;;;38.03;20.83;;;12.00;80.00;;;;;;5075584;28;20727;-82
2021/11/14 11:02:26;;;;;;;48.35;20.35;;;12.00;79.70;;;;;;5078930;28;20287;-81
2021/11/14 11:04:55;;;;;;;35.65;19.52;;;12.00;79.60;;;;;;5096521;28;20207;-80
2021/11/14 11:07:22;;;;;;;32.55;19.15;;;12.10;79.60;;;;;;5092248;28;20219;-83
2021/11/14 11:09:54;;;;;;;37.70;18.75;;;12.20;79.50;;;;;;5091376;28;20635;-82
2021/11/14 11:12:26;;;;;;;40.78;19.20;;;12.10;79.20;;;;;;5086679;28;20189;-81
2021/11/14 11:15:01;;;;;;;40.13;18.95;;;12.10;79.40;;;;;;5083088;28;20671;-81
2021/11/14 11:17:28;;;;;;;37.45;18.50;;;12.00;79.10;;;;;;5091812;28;20188;-81
2021/11/14 11:19:56;;;;;;;31.58;16.85;;;12.00;79.10;;;;;;5094250;28;20180;-81
2021/11/14 11:22:26;;;;;;;29.65;16.65;;;12.10;79.00;;;;;;5096922;28;20186;-81
2021/11/14 11:24:54;;;;;;;29.38;17.17;;;11.90;78.40;;;;;;5073442;28;20196;-81
2021/11/14 11:27:21;;;;;;;35.70;16.88;;;11.80;78.50;;;;;;5092220;28;20282;-81
2021/11/14 11:29:47;;;;;;;37.13;17.73;;;11.80;78.70;;;;;;5082959;28;20529;-81
2021/11/14 11:32:15;;;;;;;27.65;17.77;;;11.90;79.00;;;;;;5075144;28;20176;-82
2021/11/14 11:34:42;;;;;;;36.08;18.00;;;12.10;78.60;;;;;;5080088;28;20203;-82
2021/11/14 11:37:10;;;;;;;35.42;18.10;;;12.00;78.40;;;;;;5074298;28;20181;-82
2021/11/14 11:39:37;;;;;;;34.28;19.20;;;12.00;78.60;;;;;;5083151;28;20177;-81
2021/11/14 11:42:04;;;;;;;37.35;19.90;;;12.20;78.50;;;;;;5079386;28;20550;-82
2021/11/14 11:44:31;;;;;;;33.25;19.08;;;12.30;78.10;;;;;;5086009;28;20728;-82
2021/11/14 11:47:07;;;;;;;35.90;19.80;;;12.20;77.40;;;;;;5081562;28;20205;-82
2021/11/14 11:49:34;;;;;;;32.17;18.30;;;12.20;77.70;;;;;;5097069;28;20172;-83
2021/11/14 11:52:05;;;;;;;34.03;17.55;;;12.20;77.80;;;;;;5080748;28;20239;-83
2021/11/14 11:54:33;;;;;;;30.38;18.42;;;12.30;77.90;;;;;;5086804;28;20260;-84
2021/11/14 11:57:03;;;;;;;35.05;18.77;;;12.40;77.60;;;;;;5077142;28;20193;-83
2021/11/14 11:59:53;;;;;;;39.60;18.55;;;12.50;77.50;;;;;;5081498;28;20221;-82
2021/11/14 12:02:28;;;;;;;34.85;20.10;;;12.40;76.80;;;;;;5087145;28;20183;-83
2021/11/14 12:04:57;;;;;;;33.85;17.92;;;12.50;76.60;;;;;;5091764;28;20240;-84
2021/11/14 12:07:29;;;;;;;31.50;17.65;;;12.50;76.70;;;;;;5083596;28;20196;-83
2021/11/14 12:09:56;;;;;;;35.55;16.38;;;12.40;76.00;;;;;;5100159;28;20191;-83
2021/11/14 12:12:27;;;;;;;29.55;16.80;;;12.50;76.10;;;;;;5092332;28;20222;-81
2021/11/14 12:15:22;;;;;;;33.97;18.63;;;12.50;76.10;;;;;;5092130;28;20568;-82
2021/11/14 12:17:54;;;;;;;32.08;19.23;;;12.40;76.00;;;;;;5046844;28;20176;-82
2021/11/14 12:20:27;;;;;;;30.75;19.15;;;12.30;76.20;;;;;;5097666;28;20179;-83
2021/11/14 12:22:55;;;;;;;32.88;18.58;;;12.30;76.70;;;;;;5104969;28;20613;-85
2021/11/14 12:25:30;;;;;;;33.13;19.15;;;12.40;76.50;;;;;;5094730;28;20222;-82
2021/11/14 12:28:00;;;;;;;33.35;18.77;;;12.50;76.80;;;;;;5098149;28;20221;-84
2021/11/14 12:30:27;;;;;;;36.88;19.20;;;12.50;76.60;;;;;;5067419;28;20187;-83
2021/11/14 12:32:54;;;;;;;31.80;19.63;;;12.60;76.50;;;;;;5078649;28;20235;-82